Caraibas, Brazil
Current Conditions -  °F | °C
As of 6:00 AM on Sunday 26 Oct 2014 (Local Time) from SBQV Reporting Station
Broken Clouds Broken Clouds  
Wind Chill: 66°   Ceiling: 1300
Heat Index: 66°   Visibility: 6mi
Dew Point: 64°   Wind: 7mph
Humidity: 94%   Direction: 50°NE
Pressure: 30.06"   Gusts: NA
Location:  14.73°S, 41.26°W
Report Text: SBQV 260900Z 05006KT 9999 FEW007 BKN013 19/18 Q1018
Loading
Personal Weather Stations






























Interactive Weather Map
Tropical Storm Tracking
New forecast layout! Learn more

10-Day Weather Forecast

Advertisements
Track Severe Weather on mobile